createdAt,value
2017-03-23T00:00:11.088Z,0
2017-03-23T00:01:11.386Z,0
2017-03-23T00:02:11.360Z,0
2017-03-23T00:03:11.030Z,0
2017-03-23T00:04:11.019Z,0
2017-03-23T00:05:11.314Z,0
2017-03-23T00:06:11.292Z,0
2017-03-23T00:07:11.275Z,0
2017-03-23T00:08:11.295Z,0
2017-03-23T00:09:11.241Z,0
2017-03-23T00:10:11.216Z,0
2017-03-23T00:11:11.234Z,0
2017-03-23T00:12:10.562Z,0
2017-03-23T00:13:11.159Z,0
2017-03-23T00:14:11.144Z,0
2017-03-23T00:15:11.121Z,0
2017-03-23T00:16:11.111Z,0
2017-03-23T00:17:10.776Z,0
2017-03-23T00:18:10.753Z,0
2017-03-23T00:19:11.058Z,0
2017-03-23T00:20:10.741Z,0
2017-03-23T00:21:11.010Z,0
2017-03-23T00:22:10.382Z,0
2017-03-23T00:23:10.976Z,0
2017-03-23T00:24:10.966Z,0
2017-03-23T00:25:10.996Z,0
2017-03-23T00:26:10.925Z,0
2017-03-23T00:27:10.629Z,0
2017-03-23T00:28:10.885Z,0
2017-03-23T00:29:10.864Z,0
2017-03-23T00:30:10.861Z,0
2017-03-23T00:31:10.833Z,0
2017-03-23T00:32:10.184Z,0
2017-03-23T00:33:10.796Z,0
2017-03-23T00:34:10.497Z,0
2017-03-23T00:35:10.806Z,0
2017-03-23T00:36:10.791Z,0
2017-03-23T00:37:10.729Z,0
2017-03-23T00:38:10.706Z,0
2017-03-23T00:39:10.059Z,0
2017-03-23T00:40:10.354Z,0
2017-03-23T00:41:10.338Z,0
2017-03-23T00:42:10.313Z,0
2017-03-23T00:43:09.991Z,0
2017-03-23T00:44:09.961Z,0
2017-03-23T00:45:09.945Z,0
2017-03-23T00:46:10.609Z,0
2017-03-23T00:47:10.534Z,0
2017-03-23T00:48:10.203Z,0
2017-03-23T00:49:10.191Z,0
2017-03-23T00:50:10.477Z,0
2017-03-23T00:51:10.461Z,0
2017-03-23T00:52:10.134Z,0
2017-03-23T00:53:10.427Z,0
2017-03-23T00:54:10.095Z,0
2017-03-23T00:55:10.075Z,0
2017-03-23T00:56:10.058Z,0
2017-03-23T00:57:10.037Z,0
2017-03-23T00:58:10.021Z,0
2017-03-23T00:59:10.008Z,0
2017-03-23T01:00:09.995Z,0
2017-03-23T01:01:10.273Z,0
2017-03-23T01:02:10.260Z,0
2017-03-23T01:03:10.281Z,0
2017-03-23T01:04:10.222Z,0
2017-03-23T01:05:10.203Z,0
2017-03-23T01:06:10.196Z,0
2017-03-23T01:07:10.176Z,0
2017-03-23T01:08:10.167Z,0
2017-03-23T01:09:09.821Z,0
2017-03-23T01:10:10.121Z,0
2017-03-23T01:11:09.778Z,0
2017-03-23T01:12:09.765Z,0
2017-03-23T01:13:10.055Z,0
2017-03-23T01:14:10.035Z,0
2017-03-23T01:15:10.031Z,0
2017-03-23T01:16:09.999Z,0
2017-03-23T01:17:09.984Z,0
2017-03-23T01:18:09.962Z,0
2017-03-23T01:19:09.945Z,0
2017-03-23T01:20:09.930Z,0
2017-03-23T01:21:09.332Z,0
2017-03-23T01:22:09.577Z,0
2017-03-23T01:23:09.259Z,0
2017-03-23T01:24:09.867Z,0
2017-03-23T01:25:10.041Z,0
2017-03-23T01:26:09.868Z,0
2017-03-23T01:27:09.793Z,0
2017-03-23T01:28:09.769Z,0
2017-03-23T01:29:09.761Z,0
2017-03-23T01:30:09.428Z,0
2017-03-23T01:31:09.724Z,0
2017-03-23T01:32:09.700Z,0
2017-03-23T01:33:09.682Z,0
2017-03-23T01:34:09.343Z,0
2017-03-23T01:35:09.668Z,0
2017-03-23T01:36:09.314Z,0
2017-03-23T01:37:09.303Z,0
2017-03-23T01:38:09.273Z,0
2017-03-23T01:39:09.588Z,0
2017-03-23T01:40:09.233Z,0
2017-03-23T01:41:09.213Z,0
2017-03-23T01:42:09.514Z,0
2017-03-23T01:43:09.489Z,0
2017-03-23T01:44:09.471Z,0
2017-03-23T01:45:09.151Z,0
2017-03-23T01:46:09.437Z,0
2017-03-23T01:47:09.135Z,0
2017-03-23T01:48:09.394Z,0
2017-03-23T01:49:09.395Z,0
2017-03-23T01:50:09.363Z,0
2017-03-23T01:51:09.339Z,0
2017-03-23T01:52:09.012Z,0
2017-03-23T01:53:08.992Z,0
2017-03-23T01:54:09.282Z,0
2017-03-23T01:55:09.269Z,0
2017-03-23T01:56:09.245Z,0
2017-03-23T01:57:08.923Z,0
2017-03-23T01:58:08.900Z,0
2017-03-23T01:59:09.202Z,0
2017-03-23T02:00:08.867Z,0
2017-03-23T02:01:08.849Z,0
2017-03-23T02:02:09.150Z,0
2017-03-23T02:03:09.114Z,0
2017-03-23T02:04:08.790Z,0
2017-03-23T02:05:09.066Z,0
2017-03-23T02:06:09.053Z,0
2017-03-23T02:07:09.036Z,0
2017-03-23T02:08:09.045Z,0
2017-03-23T02:09:09.004Z,0
2017-03-23T02:10:08.666Z,0
2017-03-23T02:11:08.968Z,0
2017-03-23T02:12:08.659Z,0
2017-03-23T02:13:08.923Z,0
2017-03-23T02:14:08.901Z,0
2017-03-23T02:15:08.889Z,0
2017-03-23T02:16:08.871Z,0
2017-03-23T02:17:08.854Z,0
2017-03-23T02:18:08.520Z,0
2017-03-23T02:19:08.813Z,0
2017-03-23T02:20:08.790Z,0
2017-03-23T02:21:08.462Z,0
2017-03-23T02:22:08.439Z,0
2017-03-23T02:23:08.744Z,0
2017-03-23T02:24:08.714Z,0
2017-03-23T02:25:08.702Z,0
2017-03-23T02:26:08.677Z,0
2017-03-23T02:27:08.665Z,0
2017-03-23T02:28:08.644Z,0
2017-03-23T02:29:08.319Z,0
2017-03-23T02:30:08.295Z,0
2017-03-23T02:31:08.634Z,0
2017-03-23T02:32:08.570Z,0
2017-03-23T02:33:08.560Z,0
2017-03-23T02:34:07.944Z,0
2017-03-23T02:35:07.887Z,0
2017-03-23T02:36:08.184Z,0
2017-03-23T02:37:08.164Z,0
2017-03-23T02:38:08.144Z,0
2017-03-23T02:39:07.813Z,0
2017-03-23T02:40:08.108Z,0
2017-03-23T02:41:08.412Z,0
2017-03-23T02:42:08.382Z,0
2017-03-23T02:43:08.048Z,0
2017-03-23T02:44:08.033Z,0
2017-03-23T02:45:07.392Z,0
2017-03-23T02:46:08.351Z,0
2017-03-23T02:47:08.292Z,0
2017-03-23T02:48:08.271Z,0
2017-03-23T02:49:08.257Z,0
2017-03-23T02:50:07.956Z,0
2017-03-23T02:51:08.218Z,0
2017-03-23T02:52:07.885Z,0
2017-03-23T02:53:07.869Z,0
2017-03-23T02:54:08.163Z,0
2017-03-23T02:55:07.836Z,0
2017-03-23T02:56:08.125Z,0
2017-03-23T02:57:08.110Z,0
2017-03-23T02:58:08.090Z,0
2017-03-23T02:59:08.074Z,0
2017-03-23T03:00:07.744Z,0
2017-03-23T03:01:08.037Z,0
2017-03-23T03:02:07.706Z,0
2017-03-23T03:03:08.001Z,0
2017-03-23T03:04:07.985Z,0
2017-03-23T03:05:07.969Z,0
2017-03-23T03:06:07.638Z,0
2017-03-23T03:07:07.931Z,0
2017-03-23T03:08:07.599Z,0
2017-03-23T03:09:07.891Z,0
2017-03-23T03:10:07.877Z,0
2017-03-23T03:11:07.859Z,0
2017-03-23T03:12:07.847Z,0
2017-03-23T03:13:07.823Z,0
2017-03-23T03:14:07.497Z,0
2017-03-23T03:15:07.790Z,0
2017-03-23T03:16:07.772Z,0
2017-03-23T03:17:07.756Z,0
2017-03-23T03:18:07.742Z,0
2017-03-23T03:19:07.720Z,0
2017-03-23T03:20:07.700Z,0
2017-03-23T03:21:07.681Z,0
2017-03-23T03:22:07.353Z,0
2017-03-23T03:23:07.646Z,0
2017-03-23T03:24:07.629Z,0
2017-03-23T03:25:07.349Z,0
2017-03-23T03:26:07.590Z,0
2017-03-23T03:27:07.575Z,0
2017-03-23T03:28:07.556Z,0
2017-03-23T03:29:07.539Z,0
2017-03-23T03:30:07.527Z,0
2017-03-23T03:31:07.198Z,0
2017-03-23T03:32:07.175Z,0
2017-03-23T03:33:07.465Z,0
2017-03-23T03:34:06.825Z,0
2017-03-23T03:35:07.436Z,0
2017-03-23T03:36:07.106Z,0
2017-03-23T03:37:07.084Z,0
2017-03-23T03:38:07.381Z,0
2017-03-23T03:39:07.355Z,0
2017-03-23T03:40:07.355Z,0
2017-03-23T03:41:07.331Z,0
2017-03-23T03:42:06.997Z,0
2017-03-23T03:43:07.289Z,0
2017-03-23T03:44:07.272Z,0
2017-03-23T03:45:07.250Z,0
2017-03-23T03:46:06.955Z,0
2017-03-23T03:47:07.225Z,0
2017-03-23T03:48:07.201Z,0
2017-03-23T03:49:07.193Z,0
2017-03-23T03:50:07.173Z,0
2017-03-23T03:51:07.149Z,0
2017-03-23T03:52:06.821Z,0
2017-03-23T03:53:07.114Z,0
2017-03-23T03:54:06.782Z,0
2017-03-23T03:55:07.086Z,0
2017-03-23T03:56:07.061Z,0
2017-03-23T03:57:07.048Z,0
2017-03-23T03:58:06.713Z,0
2017-03-23T03:59:07.008Z,0
2017-03-23T04:00:06.990Z,0
2017-03-23T04:01:07.000Z,0
2017-03-23T04:02:06.956Z,0
2017-03-23T04:03:06.632Z,0
2017-03-23T04:04:06.606Z,0
2017-03-23T04:05:06.591Z,0
2017-03-23T04:06:06.884Z,0
2017-03-23T04:07:06.559Z,0
2017-03-23T04:08:06.852Z,0
2017-03-23T04:09:06.834Z,0
2017-03-23T04:10:06.816Z,0
2017-03-23T04:11:06.802Z,0
2017-03-23T04:12:06.783Z,0
2017-03-23T04:13:06.760Z,0
2017-03-23T04:14:06.431Z,0
2017-03-23T04:15:06.734Z,0
2017-03-23T04:16:06.464Z,0
2017-03-23T04:17:06.705Z,0
2017-03-23T04:18:06.678Z,0
2017-03-23T04:19:06.668Z,0
2017-03-23T04:20:06.639Z,0
2017-03-23T04:21:06.623Z,0
2017-03-23T04:22:05.990Z,0
2017-03-23T04:23:06.590Z,0
2017-03-23T04:24:06.572Z,0
2017-03-23T04:25:06.557Z,0
2017-03-23T04:26:06.224Z,0
2017-03-23T04:27:06.589Z,0
2017-03-23T04:28:06.196Z,0
2017-03-23T04:29:06.170Z,0
2017-03-23T04:30:06.153Z,0
2017-03-23T04:31:06.135Z,0
2017-03-23T04:32:06.118Z,0
2017-03-23T04:33:06.104Z,0
2017-03-23T04:34:06.087Z,0
2017-03-23T04:35:06.373Z,0
2017-03-23T04:36:06.363Z,0
2017-03-23T04:37:05.727Z,0
2017-03-23T04:38:06.320Z,0
2017-03-23T04:39:05.681Z,0
2017-03-23T04:40:05.980Z,0
2017-03-23T04:41:06.280Z,0
2017-03-23T04:42:06.261Z,0
2017-03-23T04:43:05.925Z,0
2017-03-23T04:44:06.229Z,0
2017-03-23T04:45:05.890Z,0
2017-03-23T04:46:06.194Z,0
2017-03-23T04:47:06.168Z,0
2017-03-23T04:48:06.151Z,0
2017-03-23T04:49:06.157Z,0
2017-03-23T04:50:06.130Z,0
2017-03-23T04:51:06.098Z,0
2017-03-23T04:52:05.460Z,0
2017-03-23T04:53:05.805Z,0
2017-03-23T04:54:05.422Z,0
2017-03-23T04:55:05.765Z,0
2017-03-23T04:56:06.012Z,0
2017-03-23T04:57:05.999Z,0
2017-03-23T04:58:05.982Z,0
2017-03-23T04:59:05.643Z,0
2017-03-23T05:00:05.951Z,0
2017-03-23T05:01:05.936Z,0
2017-03-23T05:02:05.907Z,4
2017-03-23T05:03:05.893Z,4
2017-03-23T05:04:05.865Z,0
2017-03-23T05:05:05.858Z,4
2017-03-23T05:06:05.883Z,4
2017-03-23T05:07:05.816Z,4
2017-03-23T05:08:05.803Z,8
2017-03-23T05:09:05.789Z,8
2017-03-23T05:10:05.455Z,12
2017-03-23T05:11:05.751Z,12
2017-03-23T05:12:05.114Z,12
2017-03-23T05:13:05.712Z,16
2017-03-23T05:14:05.697Z,16
2017-03-23T05:15:05.363Z,20
2017-03-23T05:16:05.666Z,24
2017-03-23T05:17:05.645Z,28
2017-03-23T05:18:05.625Z,28
2017-03-23T05:19:05.612Z,32
2017-03-23T05:20:05.276Z,36
2017-03-23T05:21:05.574Z,40
2017-03-23T05:22:05.556Z,44
2017-03-23T05:23:05.543Z,48
2017-03-23T05:24:05.207Z,52
2017-03-23T05:25:05.196Z,60
2017-03-23T05:26:05.696Z,64
2017-03-23T05:27:05.467Z,68
2017-03-23T05:28:05.451Z,72
2017-03-23T05:29:05.433Z,76
2017-03-23T05:30:05.416Z,80
2017-03-23T05:31:05.402Z,92
2017-03-23T05:32:05.378Z,100
2017-03-23T05:33:05.360Z,108
2017-03-23T05:34:05.343Z,120
2017-03-23T05:35:05.015Z,132
2017-03-23T05:36:05.346Z,148
2017-03-23T05:37:04.982Z,164
2017-03-23T05:38:05.275Z,176
2017-03-23T05:39:04.949Z,196
2017-03-23T05:40:04.953Z,212
2017-03-23T05:41:05.222Z,224
2017-03-23T05:42:05.205Z,240
2017-03-23T05:43:05.187Z,252
2017-03-23T05:44:05.171Z,260
2017-03-23T05:45:05.159Z,272
2017-03-23T05:46:05.142Z,284
2017-03-23T05:47:04.859Z,296
2017-03-23T05:48:05.109Z,300
2017-03-23T05:49:04.771Z,304
2017-03-23T05:50:04.765Z,332
2017-03-23T05:51:05.053Z,356
2017-03-23T05:52:04.728Z,364
2017-03-23T05:53:05.018Z,384
2017-03-23T05:54:04.688Z,408
2017-03-23T05:55:04.674Z,420
2017-03-23T05:56:05.017Z,432
2017-03-23T05:57:04.944Z,440
2017-03-23T05:58:04.926Z,452
2017-03-23T05:59:04.594Z,460
2017-03-23T06:00:04.270Z,472
2017-03-23T06:01:04.884Z,492
2017-03-23T06:02:04.861Z,540
2017-03-23T06:03:04.537Z,588
2017-03-23T06:04:04.514Z,632
2017-03-23T06:05:04.508Z,664
2017-03-23T06:06:04.791Z,684
2017-03-23T06:07:04.150Z,688
2017-03-23T06:08:04.130Z,688
2017-03-23T06:09:04.742Z,680
2017-03-23T06:10:04.722Z,672
2017-03-23T06:11:04.711Z,688
2017-03-23T06:12:04.377Z,712
2017-03-23T06:13:04.415Z,764
2017-03-23T06:14:04.343Z,828
2017-03-23T06:15:04.642Z,900
2017-03-23T06:16:04.618Z,976
2017-03-23T06:17:04.610Z,1056
2017-03-23T06:18:03.963Z,1120
2017-03-23T06:19:04.574Z,1156
2017-03-23T06:20:04.560Z,1180
2017-03-23T06:21:04.537Z,1208
2017-03-23T06:22:04.564Z,1240
2017-03-23T06:23:04.186Z,1280
2017-03-23T06:24:04.216Z,1328
2017-03-23T06:25:04.151Z,1388
2017-03-23T06:26:04.460Z,1456
2017-03-23T06:27:04.426Z,1508
2017-03-23T06:28:04.099Z,1544
2017-03-23T06:29:04.462Z,1576
2017-03-23T06:30:04.376Z,1672
2017-03-23T06:31:04.361Z,1744
2017-03-23T06:32:04.045Z,1788
2017-03-23T06:33:04.322Z,1800
2017-03-23T06:34:03.994Z,1812
2017-03-23T06:35:04.294Z,1820
2017-03-23T06:36:04.277Z,1840
2017-03-23T06:37:03.945Z,1884
2017-03-23T06:38:04.240Z,1940
2017-03-23T06:39:03.964Z,2008
2017-03-23T06:40:04.217Z,2084
2017-03-23T06:41:04.186Z,2148
2017-03-23T06:42:04.173Z,2216
2017-03-23T06:43:04.158Z,2288
2017-03-23T06:44:04.142Z,2376
2017-03-23T06:45:03.815Z,2452
2017-03-23T06:46:04.112Z,2500
2017-03-23T06:47:04.095Z,2520
2017-03-23T06:48:04.076Z,2540
2017-03-23T06:49:04.065Z,2564
2017-03-23T06:50:04.042Z,2564
2017-03-23T06:51:04.039Z,2536
2017-03-23T06:52:04.004Z,2476
2017-03-23T06:53:03.690Z,2444
2017-03-23T06:54:03.971Z,2464
2017-03-23T06:55:03.955Z,2508
2017-03-23T06:56:03.976Z,2552
2017-03-23T06:57:03.922Z,2592
2017-03-23T06:58:03.598Z,2652
2017-03-23T06:59:03.895Z,2704
2017-03-23T07:00:03.875Z,2752
2017-03-23T07:01:03.854Z,2872
2017-03-23T07:02:03.526Z,3020
2017-03-23T07:03:03.828Z,3132
2017-03-23T07:04:03.823Z,3268
2017-03-23T07:05:03.803Z,3472
2017-03-23T07:06:03.783Z,3612
2017-03-23T07:07:03.760Z,3632
2017-03-23T07:08:03.746Z,3668
2017-03-23T07:09:03.724Z,3796
2017-03-23T07:10:03.709Z,3940
2017-03-23T07:11:03.695Z,4080
2017-03-23T07:12:03.701Z,4132
2017-03-23T07:13:03.665Z,4168
2017-03-23T07:14:03.647Z,4212
2017-03-23T07:15:03.631Z,4300
2017-03-23T07:16:03.304Z,4508
2017-03-23T07:17:03.287Z,4636
2017-03-23T07:18:03.582Z,4728
2017-03-23T07:19:03.252Z,4792
2017-03-23T07:20:02.927Z,4828
2017-03-23T07:21:03.274Z,4860
2017-03-23T07:22:03.213Z,4952
2017-03-23T07:23:03.506Z,5072
2017-03-23T07:24:03.216Z,5236
2017-03-23T07:25:03.170Z,5372
2017-03-23T07:26:03.390Z,5440
2017-03-23T07:27:03.131Z,5432
2017-03-23T07:28:03.113Z,5488
2017-03-23T07:29:03.104Z,5648
2017-03-23T07:30:03.402Z,5804
2017-03-23T07:31:03.074Z,6032
2017-03-23T07:32:03.365Z,6304
2017-03-23T07:33:03.349Z,6564
2017-03-23T07:34:03.342Z,6208
2017-03-23T07:35:03.013Z,5256
2017-03-23T07:36:03.337Z,5272
2017-03-23T07:37:03.287Z,5508
2017-03-23T07:38:02.966Z,5676
2017-03-23T07:39:03.260Z,5656
2017-03-23T07:40:03.246Z,5584
2017-03-23T07:41:02.939Z,5564
2017-03-23T07:42:02.920Z,5492
2017-03-23T07:43:03.210Z,5244
2017-03-23T07:44:02.870Z,5444
2017-03-23T07:45:02.231Z,5856
2017-03-23T07:46:02.845Z,6264
2017-03-23T07:47:03.138Z,6632
2017-03-23T07:48:02.184Z,7156
2017-03-23T07:49:02.799Z,7712
2017-03-23T07:50:03.093Z,8152
2017-03-23T07:51:02.768Z,8652
2017-03-23T07:52:02.757Z,8956
2017-03-23T07:53:02.733Z,9284
2017-03-23T07:54:02.724Z,9668
2017-03-23T07:55:03.019Z,9892
2017-03-23T07:56:03.054Z,9672
2017-03-23T07:57:02.994Z,9360
2017-03-23T07:58:02.978Z,8884
2017-03-23T07:59:02.655Z,8392
2017-03-23T08:00:02.953Z,7104
2017-03-23T08:01:02.944Z,6808
2017-03-23T08:02:02.922Z,7364
2017-03-23T08:03:02.593Z,7756
2017-03-23T08:04:02.891Z,8136
2017-03-23T08:05:02.883Z,8436
2017-03-23T08:06:02.869Z,9032
2017-03-23T08:07:02.910Z,9692
2017-03-23T08:08:02.835Z,9976
2017-03-23T08:09:02.513Z,9220
2017-03-23T08:10:02.540Z,9304
2017-03-23T08:11:02.803Z,9136
2017-03-23T08:12:02.785Z,8324
2017-03-23T08:13:02.456Z,8520
2017-03-23T08:14:02.442Z,8088
2017-03-23T08:15:02.117Z,9004
2017-03-23T08:16:02.422Z,8192
2017-03-23T08:17:02.718Z,8592
2017-03-23T08:18:02.707Z,8720
2017-03-23T08:19:02.692Z,8756
2017-03-23T08:20:02.680Z,16512
2017-03-23T08:21:02.665Z,20704
2017-03-23T08:22:02.663Z,20608
2017-03-23T08:23:02.639Z,22336
2017-03-23T08:24:02.633Z,23424
2017-03-23T08:25:02.618Z,23552
2017-03-23T08:26:02.608Z,21536
2017-03-23T08:27:02.282Z,24288
2017-03-23T08:28:02.584Z,29280
2017-03-23T08:29:02.572Z,27872
2017-03-23T08:30:02.559Z,28864
2017-03-23T08:31:02.599Z,30496
2017-03-23T08:32:02.279Z,32480
2017-03-23T08:33:02.543Z,28000
2017-03-23T08:34:02.532Z,25696
2017-03-23T08:35:02.513Z,24160
2017-03-23T08:36:02.508Z,22912
2017-03-23T08:37:02.505Z,15840
2017-03-23T08:38:02.492Z,8424
2017-03-23T08:39:02.486Z,11596
2017-03-23T08:40:02.475Z,19168
2017-03-23T08:41:02.538Z,23072
2017-03-23T08:42:02.465Z,24128
2017-03-23T08:43:02.150Z,26496
2017-03-23T08:44:02.451Z,30560
2017-03-23T08:45:02.130Z,27904
2017-03-23T08:46:02.437Z,23584
2017-03-23T08:47:02.433Z,22560
2017-03-23T08:48:02.431Z,18880
2017-03-23T08:49:02.423Z,20160
2017-03-23T08:50:02.108Z,27360
2017-03-23T08:51:02.411Z,30880
2017-03-23T08:52:02.090Z,26752
2017-03-23T08:53:02.396Z,26272
2017-03-23T08:54:02.118Z,27232
2017-03-23T08:55:02.069Z,20064
2017-03-23T08:56:02.379Z,18112
2017-03-23T08:57:02.374Z,21696
2017-03-23T08:58:02.369Z,20960
2017-03-23T08:59:02.042Z,24512
2017-03-23T09:00:02.354Z,31520
2017-03-23T09:01:02.031Z,29568
2017-03-23T09:02:01.717Z,20704
2017-03-23T09:03:02.035Z,16832
2017-03-23T09:04:02.331Z,14988
2017-03-23T09:05:02.363Z,18720
2017-03-23T09:06:02.009Z,23040
2017-03-23T09:07:02.329Z,25568
2017-03-23T09:08:02.342Z,23648
2017-03-23T09:09:02.318Z,14684
2017-03-23T09:10:02.289Z,14344
2017-03-23T09:11:02.284Z,18688
2017-03-23T09:12:02.293Z,12676
2017-03-23T09:13:02.277Z,20928
2017-03-23T09:14:02.271Z,27712
2017-03-23T09:15:02.310Z,29248
2017-03-23T09:16:02.257Z,30880
2017-03-23T09:17:01.932Z,34464
2017-03-23T09:18:02.256Z,34048
2017-03-23T09:19:02.240Z,26464
2017-03-23T09:20:02.237Z,28640
2017-03-23T09:21:02.229Z,29792
2017-03-23T09:22:02.218Z,24800
2017-03-23T09:23:02.212Z,24416
2017-03-23T09:24:02.208Z,15084
2017-03-23T09:25:02.198Z,14352
2017-03-23T09:26:02.394Z,24000
2017-03-23T09:27:01.883Z,29504
2017-03-23T09:28:01.870Z,27008
2017-03-23T09:29:01.878Z,14512
2017-03-23T09:30:01.861Z,10008
2017-03-23T09:31:01.240Z,12932
2017-03-23T09:32:01.541Z,18880
2017-03-23T09:33:01.851Z,23072
2017-03-23T09:34:02.155Z,19744
2017-03-23T09:35:01.525Z,7544
2017-03-23T09:36:01.831Z,13432
2017-03-23T09:37:02.141Z,14556
2017-03-23T09:38:01.825Z,16576
2017-03-23T09:39:01.822Z,18688
2017-03-23T09:40:02.124Z,19168
2017-03-23T09:41:01.536Z,21152
2017-03-23T09:42:01.805Z,21088
2017-03-23T09:43:01.786Z,22912
2017-03-23T09:44:02.096Z,22944
2017-03-23T09:45:02.086Z,10880
2017-03-23T09:46:01.772Z,10592
2017-03-23T09:47:01.765Z,14588
2017-03-23T09:48:02.106Z,15724
2017-03-23T09:49:02.056Z,15736
2017-03-23T09:50:01.436Z,15612
2017-03-23T09:51:01.737Z,15720
2017-03-23T09:52:01.731Z,18656
2017-03-23T09:53:02.038Z,10752
2017-03-23T09:54:01.716Z,8800
2017-03-23T09:55:02.033Z,8572
2017-03-23T09:56:02.022Z,9068
2017-03-23T09:57:02.020Z,9848
2017-03-23T09:58:01.714Z,10000
2017-03-23T09:59:02.010Z,10760
2017-03-23T10:00:01.380Z,10668
2017-03-23T10:01:01.983Z,10840
2017-03-23T10:02:01.675Z,12260
2017-03-23T10:03:01.657Z,18848
2017-03-23T10:04:01.997Z,28992
2017-03-23T10:05:01.647Z,39072
2017-03-23T10:06:01.636Z,32480
2017-03-23T10:07:01.632Z,19424
2017-03-23T10:08:01.932Z,26976
2017-03-23T10:09:01.933Z,47456
2017-03-23T10:10:01.923Z,52416
2017-03-23T10:11:01.912Z,18272
2017-03-23T10:12:01.907Z,15512
2017-03-23T10:13:01.910Z,12688
2017-03-23T10:14:01.889Z,12440
2017-03-23T10:15:01.888Z,13052
2017-03-23T10:16:01.881Z,12740
2017-03-23T10:17:01.867Z,12824
2017-03-23T10:18:01.865Z,14160
2017-03-23T10:19:01.545Z,15584
2017-03-23T10:20:01.849Z,20192
2017-03-23T10:21:01.852Z,18496
2017-03-23T10:22:01.836Z,17824
2017-03-23T10:23:01.887Z,25696
2017-03-23T10:24:01.826Z,32032
2017-03-23T10:25:01.825Z,29696
2017-03-23T10:26:01.189Z,44800
2017-03-23T10:27:01.488Z,52192
2017-03-23T10:28:01.852Z,61248
2017-03-23T10:29:01.798Z,65344
2017-03-23T10:30:01.783Z,67264
2017-03-23T10:31:01.776Z,56672
2017-03-23T10:32:01.790Z,51552
2017-03-23T10:33:01.774Z,47168
2017-03-23T10:34:01.464Z,45536
2017-03-23T10:35:01.754Z,40832
2017-03-23T10:36:01.438Z,33568
2017-03-23T10:37:01.482Z,27168
2017-03-23T10:38:01.740Z,20256
2017-03-23T10:39:01.423Z,29440
2017-03-23T10:40:01.421Z,32384
2017-03-23T10:41:01.732Z,23424
2017-03-23T10:42:01.721Z,23008
2017-03-23T10:43:01.719Z,23808
2017-03-23T10:44:01.709Z,20480
2017-03-23T10:45:01.708Z,26240
2017-03-23T10:46:01.701Z,41888
2017-03-23T10:47:01.700Z,45184
2017-03-23T10:48:01.381Z,46400
2017-03-23T10:49:01.692Z,52544
2017-03-23T10:50:01.061Z,56384
2017-03-23T10:51:01.373Z,54048
2017-03-23T10:52:01.366Z,55008
2017-03-23T10:53:01.367Z,58592
2017-03-23T10:54:01.354Z,61216
2017-03-23T10:55:01.355Z,66240
2017-03-23T10:56:01.349Z,63104
2017-03-23T10:57:01.346Z,51328
2017-03-23T10:58:01.344Z,54688
2017-03-23T10:59:01.349Z,55680
2017-03-23T11:00:01.661Z,54080
2017-03-23T11:01:01.646Z,55520
2017-03-23T11:02:01.645Z,49664
2017-03-23T11:03:01.328Z,43200
2017-03-23T11:04:01.070Z,62624
2017-03-23T11:05:01.701Z,58368
2017-03-23T11:06:01.646Z,70368
2017-03-23T11:07:01.642Z,73312
2017-03-23T11:08:01.644Z,69664
2017-03-23T11:09:01.641Z,68352
2017-03-23T11:10:01.649Z,72160
2017-03-23T11:11:01.634Z,74112
2017-03-23T11:12:01.684Z,70208
2017-03-23T11:13:01.636Z,61280
2017-03-23T11:14:01.634Z,38784
2017-03-23T11:15:01.631Z,30464
2017-03-23T11:16:01.639Z,73792
2017-03-23T11:17:01.629Z,72064
2017-03-23T11:18:01.643Z,34496
2017-03-23T11:19:01.627Z,64992
2017-03-23T11:20:01.314Z,58720
2017-03-23T11:21:01.634Z,57408
2017-03-23T11:22:01.639Z,55168
2017-03-23T11:23:01.630Z,32288
2017-03-23T11:24:01.623Z,63936
2017-03-23T11:25:01.629Z,68288
2017-03-23T11:26:01.828Z,52032
2017-03-23T11:27:01.316Z,72992
2017-03-23T11:28:01.623Z,52384
2017-03-23T11:29:01.621Z,19808
2017-03-23T11:30:01.622Z,59552
2017-03-23T11:31:01.628Z,69440
2017-03-23T11:32:01.623Z,72544
2017-03-23T11:33:01.639Z,75616
2017-03-23T11:34:01.307Z,33696
2017-03-23T11:35:01.624Z,64256
2017-03-23T11:36:01.616Z,34272
2017-03-23T11:37:01.617Z,57664
2017-03-23T11:38:01.618Z,41216
2017-03-23T11:39:01.625Z,17416
2017-03-23T11:40:00.993Z,48896
2017-03-23T11:41:01.616Z,23424
2017-03-23T11:42:01.619Z,15372
2017-03-23T11:43:01.622Z,15304
2017-03-23T11:44:01.624Z,70304
2017-03-23T11:45:01.615Z,70848
2017-03-23T11:46:01.307Z,26048
2017-03-23T11:47:01.307Z,79456
2017-03-23T11:48:01.622Z,60992
2017-03-23T11:49:01.293Z,70048
2017-03-23T11:50:01.603Z,68512
2017-03-23T11:51:01.599Z,68736
2017-03-23T11:52:01.341Z,71456
2017-03-23T11:53:01.284Z,68864
2017-03-23T11:54:01.595Z,66464
2017-03-23T11:55:01.281Z,25760
2017-03-23T11:56:01.600Z,57600
2017-03-23T11:57:01.282Z,84416
2017-03-23T11:58:01.600Z,41248
2017-03-23T11:59:01.288Z,67808
2017-03-23T12:00:01.281Z,55296
2017-03-23T12:01:01.604Z,71488
2017-03-23T12:02:01.597Z,28832
2017-03-23T12:03:01.591Z,19008
2017-03-23T12:04:01.597Z,29760
2017-03-23T12:05:01.649Z,60832
2017-03-23T12:06:01.593Z,62240
2017-03-23T12:07:01.604Z,65952
2017-03-23T12:08:01.648Z,70688
2017-03-23T12:09:01.280Z,72672
2017-03-23T12:10:01.595Z,76288
2017-03-23T12:11:01.597Z,76800
2017-03-23T12:12:01.595Z,75840
2017-03-23T12:13:01.601Z,26848
2017-03-23T12:14:01.289Z,19424
2017-03-23T12:15:01.606Z,89600
2017-03-23T12:16:00.974Z,53760
2017-03-23T12:17:01.289Z,88192
2017-03-23T12:18:01.289Z,89984
2017-03-23T12:19:01.284Z,92064
2017-03-23T12:20:01.600Z,91040
2017-03-23T12:21:01.597Z,88832
2017-03-23T12:22:01.289Z,85120
2017-03-23T12:23:01.607Z,83008
2017-03-23T12:24:01.603Z,82880
2017-03-23T12:25:01.609Z,57952
2017-03-23T12:26:01.604Z,41568
2017-03-23T12:27:01.606Z,38912
2017-03-23T12:28:01.608Z,40288
2017-03-23T12:29:01.306Z,35072
2017-03-23T12:30:01.611Z,35360
2017-03-23T12:31:01.611Z,38528
2017-03-23T12:32:01.614Z,50112
2017-03-23T12:33:01.813Z,39456
2017-03-23T12:34:01.613Z,38176
2017-03-23T12:35:01.615Z,70016
2017-03-23T12:36:01.611Z,67296
2017-03-23T12:37:01.620Z,65792
2017-03-23T12:38:01.360Z,60032
2017-03-23T12:39:01.630Z,45024
2017-03-23T12:40:01.629Z,38976
2017-03-23T12:41:01.624Z,37056
2017-03-23T12:42:01.675Z,36832
2017-03-23T12:43:01.613Z,44704
2017-03-23T12:44:01.615Z,79392
2017-03-23T12:45:01.620Z,82816
2017-03-23T12:46:01.613Z,73216
2017-03-23T12:47:01.613Z,81536
2017-03-23T12:48:01.606Z,60928
2017-03-23T12:49:01.611Z,67296
2017-03-23T12:50:01.631Z,56032
2017-03-23T12:51:01.617Z,77056
2017-03-23T12:52:01.608Z,76928
2017-03-23T12:53:01.298Z,79520
2017-03-23T12:54:01.290Z,82816
2017-03-23T12:55:01.301Z,78592
2017-03-23T12:56:01.305Z,67104
2017-03-23T12:57:01.300Z,70336
2017-03-23T12:58:01.624Z,70944
2017-03-23T12:59:01.622Z,71072
2017-03-23T13:00:01.614Z,69280
2017-03-23T13:01:01.623Z,66912
2017-03-23T13:02:01.619Z,59680
2017-03-23T13:03:01.301Z,61792
2017-03-23T13:04:01.304Z,59584
2017-03-23T13:05:01.615Z,36928
2017-03-23T13:06:01.620Z,64192
2017-03-23T13:07:01.626Z,63328
2017-03-23T13:08:01.320Z,66944
2017-03-23T13:09:01.669Z,71072
2017-03-23T13:10:01.630Z,73088
2017-03-23T13:11:01.666Z,73696
2017-03-23T13:12:01.633Z,74880
2017-03-23T13:13:01.627Z,78688
2017-03-23T13:14:01.655Z,72800
2017-03-23T13:15:01.384Z,67936
2017-03-23T13:16:01.319Z,68608
2017-03-23T13:17:01.635Z,66144
2017-03-23T13:18:01.632Z,59776
2017-03-23T13:19:01.639Z,60512
2017-03-23T13:20:01.639Z,70720
2017-03-23T13:21:01.641Z,76800
2017-03-23T13:22:01.641Z,71872
2017-03-23T13:23:01.639Z,75264
2017-03-23T13:24:01.691Z,71232
2017-03-23T13:25:01.329Z,68672
2017-03-23T13:26:01.851Z,69376
2017-03-23T13:27:01.695Z,70688
2017-03-23T13:28:01.331Z,73568
2017-03-23T13:29:01.331Z,74848
2017-03-23T13:30:01.644Z,75072
2017-03-23T13:31:01.337Z,74816
2017-03-23T13:32:01.333Z,72512
2017-03-23T13:33:01.337Z,71776
2017-03-23T13:34:01.029Z,70304
2017-03-23T13:35:01.656Z,69472
2017-03-23T13:36:01.658Z,69856
2017-03-23T13:37:01.659Z,68928
2017-03-23T13:38:01.659Z,71968
2017-03-23T13:39:01.749Z,68352
2017-03-23T13:40:01.662Z,66208
2017-03-23T13:41:01.661Z,62656